Time;durP1;ratioP1;P1;durP2;ratioP2;P2;SDS_P1;SDS_P2;PMS_P1;PMS_P2;Temp;Humidity;BMP_temperature;BMP_pressure;BME280_temperature;BME280_humidity;BME280_pressure;Samples;Min_cycle;Max_cycle;Signal;HPM_P1;HPM_P2
2021/10/10 00:02:16;;;;;;;19.35;11.90;;;11.10;55.20;;;;;;5053538;28;20025;-71
2021/10/10 00:04:42;;;;;;;20.13;11.63;;;11.00;55.30;;;;;;5052945;28;20031;-70
2021/10/10 00:07:08;;;;;;;23.65;11.10;;;11.00;55.40;;;;;;5035964;28;20035;-69
2021/10/10 00:09:33;;;;;;;26.63;11.88;;;11.00;55.60;;;;;;5054284;28;20051;-71
2021/10/10 00:11:59;;;;;;;18.88;11.40;;;11.00;55.60;;;;;;5053938;28;20454;-70
2021/10/10 00:14:25;;;;;;;20.77;12.00;;;11.00;55.70;;;;;;5053358;28;20032;-71
2021/10/10 00:16:51;;;;;;;21.15;11.05;;;11.00;55.70;;;;;;5053643;28;20060;-70
2021/10/10 00:19:17;;;;;;;21.15;11.75;;;11.00;55.80;;;;;;5053395;28;20025;-71
2021/10/10 00:21:43;;;;;;;24.40;12.80;;;11.00;55.90;;;;;;5054203;28;20029;-73
2021/10/10 00:24:08;;;;;;;23.20;12.70;;;10.90;55.90;;;;;;5053409;28;20025;-69
2021/10/10 00:26:34;;;;;;;21.30;12.45;;;10.90;56.00;;;;;;5053940;28;20104;-69
2021/10/10 00:29:00;;;;;;;22.40;11.73;;;10.90;56.20;;;;;;5053667;28;20025;-71
2021/10/10 00:31:25;;;;;;;19.15;11.18;;;10.90;56.20;;;;;;5053457;28;20025;-69
2021/10/10 00:33:51;;;;;;;18.80;11.48;;;10.90;56.30;;;;;;5053902;28;20029;-70
2021/10/10 00:36:17;;;;;;;20.65;10.95;;;10.80;56.10;;;;;;5053091;28;20044;-70
2021/10/10 00:38:43;;;;;;;23.13;11.40;;;10.80;56.10;;;;;;5053513;28;20040;-72
2021/10/10 00:41:09;;;;;;;18.92;12.27;;;10.80;56.10;;;;;;5053201;28;20025;-71
2021/10/10 00:43:34;;;;;;;23.00;11.48;;;10.80;56.30;;;;;;5053326;28;20104;-68
2021/10/10 00:46:00;;;;;;;22.80;12.48;;;10.80;56.40;;;;;;5053359;28;20362;-70
2021/10/10 00:48:26;;;;;;;23.15;12.35;;;10.80;56.70;;;;;;5052725;28;20032;-68
2021/10/10 00:50:52;;;;;;;20.52;12.00;;;10.80;56.70;;;;;;5052984;28;20039;-69
2021/10/10 00:53:19;;;;;;;22.42;13.27;;;10.80;56.90;;;;;;5052895;28;20421;-69
2021/10/10 00:55:53;;;;;;;24.67;13.32;;;10.80;57.40;;;;;;5053242;28;20028;-68
2021/10/10 00:58:23;;;;;;;22.67;13.32;;;10.80;57.70;;;;;;5034861;28;20048;-69
2021/10/10 01:00:53;;;;;;;18.63;11.98;;;10.80;57.90;;;;;;5053448;28;20063;-70
2021/10/10 01:03:21;;;;;;;23.20;12.68;;;10.80;58.00;;;;;;5052583;28;20028;-70
2021/10/10 01:05:47;;;;;;;24.50;12.48;;;10.70;58.10;;;;;;5053066;28;20370;-69
2021/10/10 01:08:14;;;;;;;23.52;12.50;;;10.70;58.00;;;;;;5052491;28;20032;-68
2021/10/10 01:10:41;;;;;;;20.48;11.57;;;10.70;58.10;;;;;;5052869;28;20029;-69
2021/10/10 01:13:07;;;;;;;23.85;12.68;;;10.70;58.00;;;;;;5035211;28;20390;-67
2021/10/10 01:15:33;;;;;;;20.02;11.82;;;10.70;57.90;;;;;;5052841;28;20028;-69
2021/10/10 01:17:59;;;;;;;18.70;11.73;;;10.70;57.90;;;;;;5052885;28;20033;-70
2021/10/10 01:20:27;;;;;;;18.58;11.57;;;10.70;57.70;;;;;;5052201;28;20044;-70
2021/10/10 01:22:53;;;;;;;22.27;12.43;;;10.70;57.80;;;;;;5053179;28;20032;-70
2021/10/10 01:25:19;;;;;;;22.48;12.45;;;10.60;57.60;;;;;;5052453;28;20021;-68
2021/10/10 01:27:44;;;;;;;19.85;12.23;;;10.60;57.70;;;;;;5052561;28;20040;-69
2021/10/10 01:30:11;;;;;;;24.83;12.80;;;10.60;57.80;;;;;;5050450;28;20316;-63
2021/10/10 01:32:37;;;;;;;21.48;12.57;;;10.50;57.90;;;;;;5051943;28;20047;-63
2021/10/10 01:35:03;;;;;;;22.38;13.27;;;10.50;58.00;;;;;;5050793;28;20025;-63
2021/10/10 01:37:29;;;;;;;22.73;12.32;;;10.50;58.20;;;;;;5051121;28;20033;-63
2021/10/10 01:39:55;;;;;;;23.65;13.15;;;10.50;58.30;;;;;;5034056;28;20102;-64
2021/10/10 01:42:21;;;;;;;22.77;12.25;;;10.50;58.30;;;;;;5051202;28;20032;-64
2021/10/10 01:44:46;;;;;;;23.33;13.20;;;10.50;58.40;;;;;;5051573;28;20059;-64
2021/10/10 01:47:12;;;;;;;22.90;12.88;;;10.50;58.50;;;;;;5051236;28;20056;-64
2021/10/10 01:49:39;;;;;;;22.13;12.63;;;10.40;58.50;;;;;;5034496;28;20064;-63
2021/10/10 01:52:06;;;;;;;21.50;12.82;;;10.40;58.50;;;;;;5051885;28;20020;-64
2021/10/10 01:54:32;;;;;;;22.80;13.18;;;10.40;58.60;;;;;;5050009;28;20460;-64
2021/10/10 01:56:57;;;;;;;25.40;12.82;;;10.40;58.60;;;;;;5050432;28;20033;-63
2021/10/10 01:59:23;;;;;;;25.80;13.48;;;10.30;58.60;;;;;;5051626;28;20108;-64
2021/10/10 02:01:49;;;;;;;24.23;14.38;;;10.30;58.70;;;;;;5052211;28;20073;-64
2021/10/10 02:04:14;;;;;;;21.73;13.45;;;10.30;58.80;;;;;;5051290;28;20028;-65
2021/10/10 02:06:40;;;;;;;23.63;14.00;;;10.30;58.90;;;;;;5051687;28;20029;-63
2021/10/10 02:09:06;;;;;;;21.35;13.88;;;10.30;59.10;;;;;;5051450;28;20108;-63
2021/10/10 02:11:32;;;;;;;21.92;13.52;;;10.30;59.20;;;;;;5051215;28;20036;-63
2021/10/10 02:13:57;;;;;;;25.23;14.05;;;10.30;59.40;;;;;;5051492;28;20458;-64
2021/10/10 02:16:23;;;;;;;22.45;13.45;;;10.20;59.40;;;;;;5050978;28;20466;-63
2021/10/10 02:18:49;;;;;;;22.42;13.20;;;10.20;59.40;;;;;;5050374;28;20454;-63
2021/10/10 02:21:14;;;;;;;18.85;12.43;;;10.30;59.50;;;;;;5049853;28;20454;-63
2021/10/10 02:23:40;;;;;;;25.52;13.95;;;10.30;59.20;;;;;;5051504;28;20025;-63
2021/10/10 02:26:06;;;;;;;22.80;12.98;;;10.20;59.10;;;;;;5032642;28;20108;-64
2021/10/10 02:28:32;;;;;;;24.00;14.60;;;10.20;59.10;;;;;;5051137;28;20743;-62
2021/10/10 02:30:58;;;;;;;24.30;13.30;;;10.20;59.20;;;;;;5050732;28;20029;-63
2021/10/10 02:33:24;;;;;;;27.10;13.98;;;10.20;59.40;;;;;;5050369;28;20025;-63
2021/10/10 02:35:49;;;;;;;22.95;12.85;;;10.20;59.50;;;;;;5050518;28;20028;-62
2021/10/10 02:38:16;;;;;;;25.27;12.98;;;10.10;59.50;;;;;;5032176;28;20037;-62
2021/10/10 02:40:41;;;;;;;29.95;13.55;;;10.10;59.70;;;;;;5050316;28;20029;-63
2021/10/10 02:43:07;;;;;;;21.55;12.85;;;10.10;59.90;;;;;;5050708;28;20094;-63
2021/10/10 02:45:33;;;;;;;19.08;12.77;;;10.10;60.00;;;;;;5049702;28;20363;-62
2021/10/10 02:47:59;;;;;;;21.45;13.30;;;10.10;60.10;;;;;;5050114;28;20450;-62
2021/10/10 02:50:25;;;;;;;23.35;12.82;;;10.10;60.10;;;;;;5049889;28;20061;-62
2021/10/10 02:52:51;;;;;;;24.20;13.02;;;10.10;60.10;;;;;;5050449;28;20048;-64
2021/10/10 02:55:16;;;;;;;23.58;13.27;;;10.10;59.90;;;;;;5049259;28;20067;-62
2021/10/10 02:57:42;;;;;;;21.23;13.15;;;10.10;59.90;;;;;;5045819;28;20075;-62
2021/10/10 03:00:09;;;;;;;21.40;12.55;;;10.10;59.90;;;;;;5048787;28;20319;-63
2021/10/10 03:02:34;;;;;;;23.85;13.98;;;10.10;59.90;;;;;;5048340;28;20220;-62
2021/10/10 03:05:00;;;;;;;23.25;12.93;;;10.10;59.90;;;;;;5048210;28;20076;-62
2021/10/10 03:07:26;;;;;;;22.45;12.85;;;10.10;59.90;;;;;;5047504;28;20102;-62
2021/10/10 03:09:51;;;;;;;21.38;13.75;;;10.10;60.00;;;;;;5046941;28;20078;-62
2021/10/10 03:12:17;;;;;;;18.73;12.60;;;10.10;60.00;;;;;;5048199;28;20048;-62
2021/10/10 03:14:43;;;;;;;21.13;12.68;;;10.10;60.10;;;;;;5048187;28;20110;-63
2021/10/10 03:17:08;;;;;;;23.73;14.70;;;10.10;60.10;;;;;;5048838;28;20057;-62
2021/10/10 03:19:34;;;;;;;26.33;13.15;;;10.10;60.20;;;;;;5048513;28;20041;-62
2021/10/10 03:22:00;;;;;;;20.52;13.00;;;10.00;60.10;;;;;;5047552;28;20040;-63
2021/10/10 03:24:25;;;;;;;22.23;13.05;;;10.00;60.20;;;;;;5029868;28;20079;-63
2021/10/10 03:26:51;;;;;;;19.98;13.38;;;10.00;60.30;;;;;;5047571;28;20458;-62
2021/10/10 03:29:17;;;;;;;25.80;14.07;;;10.00;60.30;;;;;;5048107;28;20122;-62
2021/10/10 03:31:42;;;;;;;24.08;13.40;;;9.90;60.20;;;;;;5047413;28;20171;-63
2021/10/10 03:34:08;;;;;;;27.35;14.35;;;9.90;60.30;;;;;;5051221;28;20032;-62
2021/10/10 03:36:33;;;;;;;23.55;14.02;;;9.90;60.30;;;;;;5051006;28;20033;-61
2021/10/10 03:38:59;;;;;;;24.38;12.55;;;9.80;60.20;;;;;;5033418;28;20127;-62
2021/10/10 03:41:25;;;;;;;19.40;13.02;;;9.90;60.40;;;;;;5051466;28;20477;-62
2021/10/10 03:43:51;;;;;;;22.58;13.30;;;9.80;60.40;;;;;;5050818;28;20102;-62
2021/10/10 03:46:16;;;;;;;20.80;13.25;;;9.70;60.50;;;;;;5051529;28;20041;-62
2021/10/10 03:48:42;;;;;;;22.63;13.07;;;9.70;60.50;;;;;;5050262;28;20033;-62
2021/10/10 03:51:08;;;;;;;21.45;13.10;;;9.70;60.60;;;;;;5051585;28;20045;-62
2021/10/10 03:56:14;;;;;;;22.10;13.77;;;9.70;60.60;;;;;;5051678;28;20076;-62
2021/10/10 03:58:40;;;;;;;22.23;13.50;;;9.70;60.50;;;;;;5032195;28;20052;-61
2021/10/10 04:01:06;;;;;;;23.15;13.10;;;9.80;60.60;;;;;;5033716;28;20056;-63
2021/10/10 04:03:32;;;;;;;23.17;14.05;;;9.70;60.50;;;;;;5051009;28;20099;-62
2021/10/10 04:05:57;;;;;;;22.35;13.60;;;9.70;60.60;;;;;;5050513;28;20037;-62
2021/10/10 04:08:23;;;;;;;24.02;13.75;;;9.70;60.70;;;;;;5051384;28;20067;-61
2021/10/10 04:10:49;;;;;;;22.35;13.77;;;9.70;60.80;;;;;;5050830;28;20470;-62
2021/10/10 04:13:14;;;;;;;29.23;14.13;;;9.70;60.80;;;;;;5051262;28;20393;-62
2021/10/10 04:15:40;;;;;;;24.38;13.35;;;9.70;60.90;;;;;;5050043;28;20033;-63
2021/10/10 04:18:06;;;;;;;23.02;13.98;;;9.70;61.00;;;;;;5033682;28;20029;-63
2021/10/10 04:20:32;;;;;;;21.77;14.18;;;9.70;60.90;;;;;;5032775;28;20119;-62
2021/10/10 04:22:57;;;;;;;22.90;14.35;;;9.70;61.10;;;;;;5050471;28;20036;-62
2021/10/10 04:25:23;;;;;;;23.60;14.00;;;9.70;61.00;;;;;;5050870;28;20045;-63
2021/10/10 04:27:49;;;;;;;23.88;14.20;;;9.70;61.10;;;;;;5050383;28;20171;-62
2021/10/10 04:30:16;;;;;;;25.33;14.45;;;9.70;61.00;;;;;;5051062;28;20367;-62
2021/10/10 04:32:43;;;;;;;22.08;14.07;;;9.70;61.00;;;;;;5032880;28;20106;-63
2021/10/10 04:35:09;;;;;;;27.00;14.43;;;9.70;60.90;;;;;;5051007;28;20029;-62
2021/10/10 04:37:35;;;;;;;21.17;13.10;;;9.70;60.70;;;;;;5050429;28;20451;-62
2021/10/10 04:40:01;;;;;;;21.83;13.45;;;9.70;60.80;;;;;;5050187;28;20079;-62
2021/10/10 04:42:27;;;;;;;26.83;14.93;;;9.70;60.70;;;;;;5050298;28;20080;-62
2021/10/10 04:44:53;;;;;;;27.75;14.20;;;9.80;60.80;;;;;;5047721;28;20076;-62
2021/10/10 04:47:20;;;;;;;21.95;13.18;;;9.70;60.60;;;;;;5050396;28;20550;-62
2021/10/10 04:49:46;;;;;;;21.27;13.93;;;9.80;60.70;;;;;;5050055;28;20028;-63
2021/10/10 04:52:12;;;;;;;24.50;14.23;;;9.80;60.60;;;;;;5050599;28;20095;-62
2021/10/10 04:54:38;;;;;;;24.73;13.98;;;9.80;60.50;;;;;;5049779;28;20064;-62
2021/10/10 04:57:03;;;;;;;21.90;13.90;;;9.80;60.50;;;;;;5049808;28;20481;-62
2021/10/10 04:59:29;;;;;;;21.42;13.18;;;9.70;60.40;;;;;;5032111;28;20021;-62
2021/10/10 05:01:55;;;;;;;26.88;14.32;;;9.70;60.30;;;;;;5049840;28;20064;-62
2021/10/10 05:04:20;;;;;;;33.53;13.70;;;9.70;60.30;;;;;;5049838;28;20112;-62
2021/10/10 05:06:46;;;;;;;23.33;13.88;;;9.70;60.30;;;;;;5049319;28;20171;-63
2021/10/10 05:09:12;;;;;;;23.02;14.10;;;9.80;60.30;;;;;;5032790;28;20112;-64
2021/10/10 05:11:38;;;;;;;22.10;13.60;;;9.80;60.40;;;;;;5031310;28;20021;-63
2021/10/10 05:14:03;;;;;;;24.05;14.15;;;9.80;60.40;;;;;;5032244;28;20546;-63
2021/10/10 05:16:29;;;;;;;24.75;14.05;;;9.80;60.50;;;;;;5049679;28;20036;-62
2021/10/10 05:18:55;;;;;;;22.92;13.85;;;9.80;60.40;;;;;;5049427;28;20045;-62
2021/10/10 05:21:20;;;;;;;24.92;14.40;;;9.80;60.40;;;;;;5050011;28;20386;-62
2021/10/10 05:23:46;;;;;;;24.75;13.75;;;9.80;60.40;;;;;;5049151;28;20489;-63
2021/10/10 05:26:12;;;;;;;22.13;14.25;;;9.70;60.40;;;;;;5049709;28;20031;-62
2021/10/10 05:28:38;;;;;;;26.15;14.80;;;9.80;60.50;;;;;;5049241;28;20045;-61
2021/10/10 05:31:04;;;;;;;23.60;13.90;;;9.80;60.50;;;;;;5032004;28;20459;-63
2021/10/10 05:33:29;;;;;;;23.27;14.38;;;9.80;60.60;;;;;;5049621;28;20095;-62
2021/10/10 05:35:55;;;;;;;23.67;14.57;;;9.80;60.50;;;;;;5049172;28;20021;-63
2021/10/10 05:38:21;;;;;;;23.73;14.73;;;9.90;60.50;;;;;;5049202;28;20052;-63
2021/10/10 05:40:46;;;;;;;27.88;14.18;;;9.90;60.30;;;;;;5049072;28;20450;-62
2021/10/10 05:43:12;;;;;;;24.77;14.48;;;9.90;60.20;;;;;;5031597;28;20083;-64
2021/10/10 05:45:38;;;;;;;28.90;15.13;;;10.00;60.10;;;;;;5031077;28;20103;-63
2021/10/10 05:48:04;;;;;;;25.77;14.85;;;10.00;60.10;;;;;;5049484;28;20131;-63
2021/10/10 05:50:30;;;;;;;30.40;15.23;;;10.00;60.20;;;;;;5031405;28;20108;-62
2021/10/10 05:52:55;;;;;;;23.23;14.88;;;10.10;60.00;;;;;;5048674;28;20490;-62
2021/10/10 05:55:24;;;;;;;23.17;14.15;;;10.10;59.90;;;;;;5048828;28;20048;-62
2021/10/10 05:57:51;;;;;;;24.98;15.20;;;10.10;59.70;;;;;;5048745;28;20111;-62
2021/10/10 06:00:19;;;;;;;27.90;15.90;;;10.10;59.50;;;;;;5049601;28;20033;-62
2021/10/10 06:02:46;;;;;;;27.80;14.90;;;10.10;59.50;;;;;;5048893;28;20060;-63
2021/10/10 06:05:12;;;;;;;24.73;14.63;;;10.20;59.50;;;;;;5031685;28;20052;-63
2021/10/10 06:07:38;;;;;;;29.73;14.98;;;10.20;59.70;;;;;;5048622;28;20040;-63
2021/10/10 06:10:06;;;;;;;22.05;13.90;;;10.20;59.50;;;;;;5048862;28;20059;-62
2021/10/10 06:12:33;;;;;;;30.40;15.05;;;10.20;59.40;;;;;;5031501;28;20036;-62
2021/10/10 06:15:00;;;;;;;21.50;14.25;;;10.30;59.40;;;;;;5032972;28;20533;-62
2021/10/10 06:17:26;;;;;;;27.95;14.95;;;10.30;59.30;;;;;;5050414;28;20107;-62
2021/10/10 06:19:51;;;;;;;29.50;14.93;;;10.40;59.30;;;;;;5051386;28;20025;-63
2021/10/10 06:22:18;;;;;;;22.67;14.43;;;10.50;59.00;;;;;;5051345;28;20025;-63
2021/10/10 06:24:44;;;;;;;30.48;13.40;;;10.60;58.70;;;;;;5033006;28;20358;-63
2021/10/10 06:27:10;;;;;;;26.80;13.88;;;10.70;58.20;;;;;;5050983;28;20036;-65
2021/10/10 06:29:36;;;;;;;24.50;13.73;;;10.80;57.40;;;;;;5050440;28;20113;-63
2021/10/10 06:32:01;;;;;;;26.00;14.15;;;11.00;57.10;;;;;;5050870;28;20029;-63
2021/10/10 06:34:27;;;;;;;24.95;14.60;;;11.20;56.10;;;;;;5050071;28;20096;-62
2021/10/10 06:37:12;;;;;;;25.52;14.82;;;11.30;55.60;;;;;;5050907;28;20033;-64
2021/10/10 06:39:37;;;;;;;29.45;16.52;;;11.50;55.00;;;;;;5050357;28;20478;-63
2021/10/10 06:42:05;;;;;;;21.70;13.13;;;11.70;54.50;;;;;;5033045;28;20083;-64
2021/10/10 06:44:32;;;;;;;24.30;13.65;;;11.80;53.60;;;;;;5049929;28;20057;-62
2021/10/10 06:46:58;;;;;;;21.77;13.77;;;11.90;52.90;;;;;;5050578;28;20056;-62
2021/10/10 06:49:24;;;;;;;23.95;14.00;;;11.90;52.80;;;;;;5031240;28;20079;-63
2021/10/10 06:51:50;;;;;;;24.73;14.10;;;12.00;52.70;;;;;;5050256;28;20502;-63
2021/10/10 06:54:15;;;;;;;24.98;13.98;;;12.00;52.20;;;;;;5032874;28;20364;-63
2021/10/10 06:56:41;;;;;;;24.48;14.30;;;11.90;51.70;;;;;;5048499;28;20090;-64
2021/10/10 06:59:07;;;;;;;26.35;14.73;;;11.90;51.90;;;;;;5049659;28;20373;-65
2021/10/10 07:01:33;;;;;;;27.95;15.00;;;11.80;51.90;;;;;;5049051;28;20478;-61
2021/10/10 07:03:59;;;;;;;26.75;14.13;;;11.90;51.70;;;;;;5031879;28;20025;-61
2021/10/10 07:06:25;;;;;;;25.30;13.98;;;11.90;51.70;;;;;;5049072;28;20032;-64
2021/10/10 07:08:52;;;;;;;23.05;13.93;;;12.00;51.60;;;;;;5053344;28;20029;-64
2021/10/10 07:11:18;;;;;;;26.23;14.73;;;12.00;51.00;;;;;;5053888;28;20029;-62
2021/10/10 07:13:44;;;;;;;27.92;14.18;;;12.00;51.40;;;;;;5035589;28;20047;-62
2021/10/10 07:16:10;;;;;;;22.45;14.13;;;12.10;51.30;;;;;;5036118;28;20041;-63
2021/10/10 07:18:55;;;;;;;27.23;14.02;;;12.20;50.90;;;;;;5035215;28;20458;-64
2021/10/10 07:26:37;;;;;;;30.58;14.43;;;12.20;50.60;;;;;;5053325;28;19913;-63
2021/10/10 07:29:04;;;;;;;24.63;14.82;;;12.30;50.40;;;;;;5053560;28;20031;-62
2021/10/10 07:31:30;;;;;;;24.25;14.05;;;12.20;50.50;;;;;;5035572;28;20029;-62
2021/10/10 07:33:56;;;;;;;25.67;15.40;;;12.30;50.50;;;;;;5052750;28;20453;-64
2021/10/10 07:36:22;;;;;;;26.60;15.63;;;12.50;50.20;;;;;;5053392;28;20064;-65
2021/10/10 07:38:47;;;;;;;24.70;15.82;;;12.70;50.10;;;;;;5053398;28;20090;-63
2021/10/10 07:41:13;;;;;;;26.83;15.15;;;13.40;49.20;;;;;;5053328;28;20102;-63
2021/10/10 07:43:41;;;;;;;28.95;16.33;;;14.20;46.50;;;;;;5052318;28;20025;-64
2021/10/10 07:46:10;;;;;;;28.90;14.73;;;14.70;46.20;;;;;;5053552;28;20033;-63
2021/10/10 07:48:36;;;;;;;27.27;15.45;;;15.70;44.50;;;;;;5035127;28;20033;-64
2021/10/10 07:51:03;;;;;;;29.27;15.48;;;16.90;43.00;;;;;;5053255;28;20112;-64
2021/10/10 07:53:29;;;;;;;25.10;14.75;;;17.50;41.40;;;;;;5053218;28;20061;-65
2021/10/10 07:55:55;;;;;;;25.73;15.95;;;17.80;39.80;;;;;;5053273;28;20505;-64
2021/10/10 07:58:21;;;;;;;29.83;15.30;;;17.90;39.70;;;;;;5052909;28;20385;-66
2021/10/10 08:00:47;;;;;;;26.45;16.50;;;18.00;38.80;;;;;;5051441;28;20024;-63
2021/10/10 08:03:13;;;;;;;25.10;15.68;;;18.10;37.70;;;;;;5053359;28;20078;-63
2021/10/10 08:05:43;;;;;;;25.85;17.10;;;17.70;37.80;;;;;;5051892;28;20075;-63
2021/10/10 08:08:10;;;;;;;22.60;14.23;;;17.20;39.00;;;;;;5052560;28;20079;-64
2021/10/10 08:10:37;;;;;;;23.20;14.40;;;17.10;39.60;;;;;;5033555;28;20040;-62
2021/10/10 08:13:03;;;;;;;25.30;15.13;;;17.20;39.70;;;;;;5051210;28;20025;-63
2021/10/10 08:15:28;;;;;;;32.05;14.48;;;17.20;39.60;;;;;;5051964;28;20450;-62
2021/10/10 08:17:54;;;;;;;35.17;21.92;;;17.40;39.50;;;;;;5052620;28;20029;-63
2021/10/10 08:20:21;;;;;;;30.13;16.35;;;17.30;39.20;;;;;;5051652;28;20025;-63
2021/10/10 08:22:48;;;;;;;24.23;14.15;;;17.20;39.40;;;;;;5052366;28;20032;-63
2021/10/10 08:25:14;;;;;;;28.45;16.10;;;17.10;39.50;;;;;;5051481;28;20025;-63
2021/10/10 08:27:45;;;;;;;28.23;17.90;;;16.90;39.60;;;;;;5051839;28;20040;-63
2021/10/10 08:30:15;;;;;;;24.80;15.43;;;16.40;40.00;;;;;;5052540;28;20021;-62
2021/10/10 08:32:41;;;;;;;27.90;15.55;;;15.90;40.60;;;;;;5052057;28;20032;-63
2021/10/10 08:35:08;;;;;;;26.13;14.80;;;15.50;41.40;;;;;;5052510;28;20032;-63
2021/10/10 08:37:34;;;;;;;26.55;15.52;;;15.20;42.30;;;;;;5033989;28;20068;-62
2021/10/10 08:40:00;;;;;;;22.50;14.90;;;15.10;42.70;;;;;;5051758;28;20238;-63
2021/10/10 08:42:35;;;;;;;26.42;15.43;;;15.00;42.90;;;;;;5033952;28;20434;-63
2021/10/10 08:45:10;;;;;;;27.88;15.68;;;15.00;43.20;;;;;;5034014;28;20188;-62
2021/10/10 08:47:43;;;;;;;22.98;15.23;;;14.90;43.30;;;;;;5051926;28;20072;-63
2021/10/10 08:50:16;;;;;;;25.33;15.70;;;14.70;43.70;;;;;;5052426;28;20043;-62
2021/10/10 08:52:43;;;;;;;27.88;15.88;;;14.90;43.70;;;;;;5052185;28;20064;-62
2021/10/10 08:55:09;;;;;;;25.45;15.63;;;15.10;43.60;;;;;;5034545;28;20344;-63
2021/10/10 08:57:35;;;;;;;27.42;16.00;;;15.40;43.40;;;;;;5033459;28;20102;-62
2021/10/10 09:00:05;;;;;;;26.65;15.30;;;15.60;43.00;;;;;;5051673;28;20025;-63
2021/10/10 09:02:32;;;;;;;32.67;16.48;;;15.70;42.50;;;;;;5051097;28;20033;-64
2021/10/10 09:05:08;;;;;;;31.98;16.75;;;15.70;42.20;;;;;;5033715;28;20029;-63
2021/10/10 09:07:36;;;;;;;29.73;16.58;;;15.60;42.40;;;;;;5051278;28;20029;-64
2021/10/10 09:10:21;;;;;;;26.73;15.95;;;15.60;42.70;;;;;;5051449;28;20474;-63
2021/10/10 09:12:47;;;;;;;22.88;14.55;;;15.80;42.40;;;;;;5049805;28;20412;-63
2021/10/10 09:15:17;;;;;;;23.60;15.93;;;15.70;42.00;;;;;;5051973;28;20074;-62
2021/10/10 09:17:57;;;;;;;31.27;17.77;;;15.70;42.30;;;;;;5049872;28;20025;-63
2021/10/10 09:20:40;;;;;;;27.40;16.15;;;15.70;42.10;;;;;;5051589;28;20052;-64
2021/10/10 09:23:27;;;;;;;23.60;15.10;;;15.70;42.30;;;;;;5050693;28;20061;-63
2021/10/10 09:25:57;;;;;;;26.30;15.52;;;15.80;42.90;;;;;;5033094;28;20043;-62
2021/10/10 09:28:26;;;;;;;24.83;14.80;;;15.90;41.80;;;;;;5033645;28;20033;-65
2021/10/10 09:30:57;;;;;;;22.25;13.55;;;15.90;41.60;;;;;;5051148;28;20029;-62
2021/10/10 09:33:41;;;;;;;22.55;13.75;;;15.90;40.80;;;;;;5050882;28;20032;-64
2021/10/10 09:36:15;;;;;;;26.85;14.02;;;15.70;41.30;;;;;;5051449;28;20029;-63
2021/10/10 09:38:45;;;;;;;24.20;12.52;;;15.70;41.50;;;;;;5051089;28;20100;-64
2021/10/10 09:41:20;;;;;;;22.40;13.02;;;15.70;41.20;;;;;;5033523;28;20075;-62
2021/10/10 09:44:00;;;;;;;26.08;13.60;;;15.70;40.70;;;;;;5050803;28;20029;-64
2021/10/10 09:46:28;;;;;;;27.40;14.75;;;15.70;40.10;;;;;;5050858;28;20028;-65
2021/10/10 09:48:54;;;;;;;23.20;13.23;;;15.70;40.00;;;;;;5051357;28;20098;-63
2021/10/10 09:51:30;;;;;;;23.38;13.23;;;15.60;39.60;;;;;;5033615;28;20025;-63
2021/10/10 09:54:01;;;;;;;23.75;12.57;;;15.50;39.70;;;;;;5033696;28;20381;-65
2021/10/10 09:56:27;;;;;;;23.77;14.30;;;15.70;39.30;;;;;;5050942;28;20040;-65
2021/10/10 09:58:53;;;;;;;29.48;13.75;;;15.80;39.10;;;;;;5033591;28;20021;-61
2021/10/10 10:01:22;;;;;;;30.75;14.90;;;15.90;39.30;;;;;;5033433;28;20470;-62
2021/10/10 10:04:08;;;;;;;27.40;13.32;;;16.00;39.20;;;;;;5049460;28;20036;-63
2021/10/10 10:06:38;;;;;;;27.40;12.10;;;16.20;38.80;;;;;;5050591;28;20039;-61
2021/10/10 10:11:56;;;;;;;22.42;13.38;;;16.40;38.50;;;;;;5051286;28;20581;-62
2021/10/10 10:14:24;;;;;;;24.30;12.20;;;16.40;38.30;;;;;;5051114;28;20025;-61
2021/10/10 10:16:50;;;;;;;23.38;12.75;;;16.50;38.40;;;;;;5050868;28;20355;-62
2021/10/10 10:19:17;;;;;;;26.17;13.35;;;16.30;38.00;;;;;;5050921;28;20083;-61
2021/10/10 10:21:52;;;;;;;23.75;12.25;;;16.10;38.40;;;;;;5050756;28;20358;-62
2021/10/10 10:24:20;;;;;;;23.50;12.52;;;15.90;38.80;;;;;;5051404;28;20043;-61
2021/10/10 10:26:45;;;;;;;23.00;12.70;;;15.90;39.50;;;;;;5050675;28;20039;-64
2021/10/10 10:29:16;;;;;;;22.33;12.02;;;16.10;39.20;;;;;;5050730;28;20456;-65
2021/10/10 10:31:45;;;;;;;27.23;13.00;;;16.30;39.00;;;;;;5048980;28;20025;-65
2021/10/10 10:34:20;;;;;;;23.08;12.90;;;16.30;38.20;;;;;;5049232;28;20060;-64
2021/10/10 10:37:11;;;;;;;20.65;12.90;;;16.30;38.20;;;;;;5032555;28;20033;-63
2021/10/10 10:39:40;;;;;;;23.00;12.48;;;16.40;38.00;;;;;;5050413;28;20025;-63
2021/10/10 10:42:09;;;;;;;27.58;12.98;;;16.50;37.90;;;;;;5049337;28;20112;-64
2021/10/10 10:44:45;;;;;;;27.33;13.60;;;16.60;38.00;;;;;;5051888;28;20052;-65
2021/10/10 10:47:16;;;;;;;24.00;12.23;;;16.60;37.80;;;;;;5036078;28;20075;-65
2021/10/10 10:49:54;;;;;;;24.42;13.57;;;16.70;37.50;;;;;;5053365;28;20035;-63
2021/10/10 10:52:30;;;;;;;25.67;12.52;;;16.70;37.60;;;;;;5054005;28;20025;-63
2021/10/10 10:55:17;;;;;;;29.48;13.20;;;16.70;37.60;;;;;;5053950;28;20029;-63
2021/10/10 10:58:06;;;;;;;23.67;11.80;;;17.00;37.60;;;;;;5053868;28;20094;-64
2021/10/10 11:00:38;;;;;;;18.20;12.05;;;17.10;37.00;;;;;;5023524;28;20044;-64
2021/10/10 11:03:10;;;;;;;25.65;14.32;;;17.20;37.30;;;;;;5053762;28;20051;-64
2021/10/10 11:06:00;;;;;;;25.42;13.40;;;17.30;37.10;;;;;;5034226;28;20495;-64
2021/10/10 11:08:26;;;;;;;29.35;12.95;;;17.30;36.70;;;;;;5052721;28;20060;-64
2021/10/10 11:11:03;;;;;;;24.92;12.75;;;17.30;37.10;;;;;;5054093;28;20091;-65
2021/10/10 11:13:35;;;;;;;24.63;13.07;;;17.20;36.70;;;;;;5053405;28;20025;-63
2021/10/10 11:16:14;;;;;;;23.05;13.35;;;17.10;37.00;;;;;;5052624;28;20025;-64
2021/10/10 11:18:56;;;;;;;21.55;12.57;;;17.00;37.30;;;;;;5053560;28;20044;-64
2021/10/10 11:21:24;;;;;;;22.27;12.95;;;17.00;37.60;;;;;;5036002;28;20048;-63
2021/10/10 11:23:56;;;;;;;24.38;13.52;;;17.10;37.50;;;;;;5053861;28;20025;-65
2021/10/10 11:26:23;;;;;;;26.98;13.10;;;17.20;37.60;;;;;;5053908;28;20050;-65
2021/10/10 11:28:58;;;;;;;20.98;13.00;;;17.00;37.40;;;;;;5053354;28;20021;-64
2021/10/10 11:31:25;;;;;;;19.00;11.70;;;16.90;37.60;;;;;;5053335;28;20059;-63
2021/10/10 11:33:56;;;;;;;24.08;13.65;;;16.90;37.50;;;;;;5053448;28;20025;-64
2021/10/10 11:36:36;;;;;;;22.33;12.35;;;16.90;37.70;;;;;;5052311;28;20423;-63
2021/10/10 11:39:08;;;;;;;24.90;13.23;;;16.80;37.70;;;;;;5052498;28;20021;-62
2021/10/10 11:41:47;;;;;;;26.08;12.73;;;16.60;38.20;;;;;;5053028;28;20044;-64
2021/10/10 11:44:18;;;;;;;22.20;12.93;;;16.60;38.40;;;;;;5053393;28;20098;-64
2021/10/10 11:47:00;;;;;;;22.65;13.07;;;16.50;38.20;;;;;;5034590;28;20108;-64
2021/10/10 11:49:52;;;;;;;21.75;12.15;;;16.40;38.70;;;;;;5052855;28;20025;-66
2021/10/10 11:55:10;;;;;;;23.13;13.35;;;16.70;38.20;;;;;;5053103;28;20074;-63
2021/10/10 11:57:40;;;;;;;23.92;13.68;;;16.70;38.00;;;;;;5052378;28;20121;-64
2021/10/10 12:00:11;;;;;;;21.42;12.00;;;16.70;38.20;;;;;;5035101;28;20074;-63
2021/10/10 12:02:46;;;;;;;22.73;12.93;;;16.60;38.10;;;;;;5052227;28;20044;-64
2021/10/10 12:05:16;;;;;;;23.45;12.65;;;16.40;38.20;;;;;;5052787;28;20025;-64
2021/10/10 12:07:43;;;;;;;20.77;11.90;;;16.50;38.60;;;;;;5034551;28;20029;-64
2021/10/10 12:10:14;;;;;;;19.85;11.95;;;16.70;38.50;;;;;;5053083;28;20124;-63
2021/10/10 12:12:39;;;;;;;20.40;11.63;;;16.70;38.30;;;;;;5052290;28;20040;-64
2021/10/10 12:15:07;;;;;;;25.25;12.40;;;16.70;38.50;;;;;;5052851;28;20029;-66
2021/10/10 12:17:44;;;;;;;23.60;12.32;;;16.70;38.60;;;;;;5051061;28;20029;-65
2021/10/10 12:20:16;;;;;;;20.42;11.85;;;16.60;38.80;;;;;;5052556;28;20041;-65
2021/10/10 12:22:52;;;;;;;20.08;12.00;;;16.60;39.10;;;;;;5050618;28;20035;-64
2021/10/10 12:25:35;;;;;;;20.00;12.50;;;16.70;39.00;;;;;;5034942;28;20029;-65
2021/10/10 12:28:03;;;;;;;21.08;11.93;;;16.80;38.80;;;;;;5052589;28;20498;-64
2021/10/10 12:30:38;;;;;;;21.80;10.98;;;16.90;38.90;;;;;;5050964;28;20462;-65
2021/10/10 12:33:28;;;;;;;20.65;11.15;;;16.70;39.60;;;;;;5034636;28;20028;-64
2021/10/10 12:36:00;;;;;;;18.50;11.25;;;16.60;40.00;;;;;;5033399;28;20082;-66
2021/10/10 12:38:38;;;;;;;22.75;11.00;;;16.70;39.90;;;;;;5033894;28;20128;-67
2021/10/10 12:41:26;;;;;;;20.27;11.13;;;16.80;39.70;;;;;;5031206;28;20025;-65
2021/10/10 12:44:15;;;;;;;21.55;11.88;;;16.80;39.40;;;;;;5047339;28;20124;-64
2021/10/10 12:46:55;;;;;;;59.80;41.20;;;16.80;39.80;;;;;;5044232;28;20033;-64
2021/10/10 12:49:32;;;;;;;20.65;12.98;;;16.50;40.00;;;;;;5049620;28;20040;-64